createdAt,value
2023-05-10T00:02:30.010Z,100989.22
2023-05-10T00:05:00.068Z,100989.22
2023-05-10T00:07:30.185Z,100994.47
2023-05-10T00:10:00.343Z,100992.81
2023-05-10T00:12:30.520Z,101000.28
2023-05-10T00:15:00.854Z,101000.63
2023-05-10T00:17:31.124Z,101005.19
2023-05-10T00:20:01.428Z,100995.91
2023-05-10T00:22:31.646Z,100986.47
2023-05-10T00:25:02.552Z,100989.06
2023-05-10T00:27:32.733Z,100980.47
2023-05-10T00:30:02.841Z,100991.53
2023-05-10T00:32:33.212Z,100989.06
2023-05-10T00:35:03.640Z,100985.34
2023-05-10T00:37:34.029Z,100975.41
2023-05-10T00:40:04.249Z,100968.75
2023-05-10T00:42:34.498Z,100969.41
2023-05-10T00:45:05.131Z,100978.16
2023-05-10T00:47:35.925Z,100977.88
2023-05-10T00:50:06.702Z,100985.34
2023-05-10T00:52:37.148Z,100985.53
2023-05-10T00:55:08.478Z,101001.50
2023-05-10T00:57:38.970Z,101001.97
2023-05-10T01:00:09.955Z,101015.78
2023-05-10T01:02:40.453Z,101017.25
2023-05-10T01:05:11.043Z,101024.91
2023-05-10T01:07:41.612Z,101031.59
2023-05-10T01:10:14.163Z,101034.34
2023-05-10T01:12:48.877Z,101038.09
2023-05-10T01:15:20.876Z,101045.56
2023-05-10T01:17:52.633Z,101047.34
2023-05-10T01:20:23.198Z,101053.38
2023-05-10T01:23:16.429Z,101061.19
2023-05-10T01:25:52.436Z,101068.34
2023-05-10T01:28:56.173Z,101071.13
2023-05-10T01:31:34.908Z,101067.22
2023-05-10T01:34:19.892Z,101074.09
2023-05-10T01:36:56.550Z,101089.84
2023-05-10T01:39:42.004Z,101089.84
2023-05-10T01:42:20.392Z,101090.50
2023-05-10T01:45:13.717Z,101093.75
2023-05-10T01:48:10.872Z,101102.91
2023-05-10T01:50:46.790Z,101111.03
2023-05-10T01:53:21.851Z,101118.19
2023-05-10T01:55:55.884Z,101118.69
2023-05-10T01:58:35.335Z,101126.34
2023-05-10T02:01:08.120Z,101125.69
2023-05-10T02:03:43.158Z,101123.09
2023-05-10T02:06:16.506Z,101113.97
2023-05-10T02:08:50.018Z,101120.81
2023-05-10T02:11:22.235Z,101120.31
2023-05-10T02:13:55.237Z,101132.06
2023-05-10T02:16:34.153Z,101133.19
2023-05-10T02:19:05.833Z,101136.44
2023-05-10T02:21:37.227Z,101131.25
2023-05-10T02:24:08.956Z,101135.47
2023-05-10T02:26:41.800Z,101146.53
2023-05-10T02:29:15.612Z,101129.28
2023-05-10T02:31:46.925Z,101130.91
2023-05-10T02:34:18.291Z,101119.84
2023-05-10T02:36:49.620Z,101114.50
2023-05-10T02:39:22.888Z,101106.19
2023-05-10T02:41:54.098Z,101109.78
2023-05-10T02:44:26.730Z,101098.38
2023-05-10T02:46:59.202Z,101088.59
2023-05-10T02:49:29.729Z,101091.88
2023-05-10T02:52:07.886Z,101093.81
2023-05-10T02:54:47.344Z,101090.91
2023-05-10T02:57:23.905Z,101094.13
2023-05-10T02:59:54.868Z,101093.19
2023-05-10T03:02:25.096Z,101084.06
2023-05-10T03:04:55.557Z,101081.63
2023-05-10T03:07:26.680Z,101084.06
2023-05-10T03:09:57.199Z,101092.34
2023-05-10T03:12:54.260Z,101090.53
2023-05-10T03:15:42.552Z,101086.00
2023-05-10T03:18:34.660Z,101095.13
2023-05-10T03:21:12.335Z,101086.63
2023-05-10T03:23:54.201Z,101093.81
2023-05-10T03:26:29.352Z,101086.16
2023-05-10T03:29:11.830Z,101090.41
2023-05-10T03:31:42.786Z,101084.06
2023-05-10T03:34:13.039Z,101092.97
2023-05-10T03:36:43.223Z,101082.91
2023-05-10T03:39:13.876Z,101092.19
2023-05-10T03:41:44.815Z,101093.34
2023-05-10T03:44:15.126Z,101096.59
2023-05-10T03:46:45.354Z,101095.78
2023-05-10T03:49:16.727Z,101094.63
2023-05-10T03:51:47.456Z,101089.59
2023-05-10T03:54:18.203Z,101093.50
2023-05-10T03:56:51.232Z,101087.81
2023-05-10T03:59:23.397Z,101086.16
2023-05-10T04:01:55.078Z,101080.97
2023-05-10T04:04:27.473Z,101078.38
2023-05-10T04:06:58.171Z,101081.13
2023-05-10T04:09:28.617Z,101070.53
2023-05-10T04:11:58.793Z,101071.84
2023-05-10T04:14:28.797Z,101073.81
2023-05-10T04:16:58.902Z,101074.59
2023-05-10T04:19:36.123Z,101070.69
2023-05-10T04:22:06.760Z,101072.34
2023-05-10T04:24:37.053Z,101068.91
2023-05-10T04:27:07.085Z,101052.31
2023-05-10T04:29:38.123Z,101063.88
2023-05-10T04:32:08.078Z,101060.28
2023-05-10T04:34:38.071Z,101049.53
2023-05-10T04:37:08.226Z,101035.03
2023-05-10T04:39:40.291Z,101036.19
2023-05-10T04:42:12.363Z,101025.09
2023-05-10T04:44:42.986Z,101022.81
2023-05-10T04:47:13.215Z,101017.28
2023-05-10T04:49:43.423Z,101016.13
2023-05-10T04:52:13.673Z,101019.72
2023-05-10T04:54:43.952Z,101008.31
2023-05-10T04:57:14.285Z,101006.03
2023-05-10T04:59:44.899Z,100998.84
2023-05-10T05:02:15.348Z,100991.38
2023-05-10T05:04:45.623Z,100998.53
2023-05-10T05:07:15.968Z,100987.97
2023-05-10T05:09:46.022Z,100989.25
2023-05-10T05:12:17.329Z,100983.69
2023-05-10T05:14:47.467Z,100967.88
2023-05-10T05:17:17.807Z,100961.88
2023-05-10T05:19:47.909Z,100957.28
2023-05-10T05:22:19.466Z,100937.13
2023-05-10T05:24:50.065Z,100935.97
2023-05-10T05:27:20.815Z,100926.84
2023-05-10T05:29:50.921Z,100924.41
2023-05-10T05:32:21.152Z,100917.72
2023-05-10T05:34:51.545Z,100908.28
2023-05-10T05:37:24.317Z,100906.16
2023-05-10T05:39:54.822Z,100908.59
2023-05-10T05:42:24.976Z,100898.34
2023-05-10T05:44:55.030Z,100890.19
2023-05-10T05:47:25.085Z,100880.59
2023-05-10T05:49:55.108Z,100877.81
2023-05-10T05:52:25.094Z,100880.59
2023-05-10T05:54:55.315Z,100867.53
2023-05-10T05:57:26.187Z,100862.81
2023-05-10T05:59:56.369Z,100862.81
2023-05-10T06:02:26.705Z,100859.38
2023-05-10T06:04:56.917Z,100854.19
2023-05-10T06:07:27.126Z,100856.59
2023-05-10T06:09:57.282Z,100851.88
2023-05-10T06:12:27.346Z,100841.59
2023-05-10T06:14:57.508Z,100838.84
2023-05-10T06:17:28.468Z,100833.78
2023-05-10T06:19:59.308Z,100821.06
2023-05-10T06:22:29.502Z,100821.06
2023-05-10T06:24:59.647Z,100814.41
2023-05-10T06:27:29.783Z,100804.63
2023-05-10T06:30:11.702Z,100801.03
2023-05-10T06:32:43.521Z,100792.25
2023-05-10T06:35:13.846Z,100781.63
2023-05-10T06:37:44.141Z,100780.00
2023-05-10T06:40:15.241Z,100765.03
2023-05-10T06:42:45.502Z,100765.50
2023-05-10T06:45:16.535Z,100759.47
2023-05-10T06:47:46.755Z,100753.28
2023-05-10T06:50:16.958Z,100746.25
2023-05-10T06:52:47.272Z,100745.44
2023-05-10T06:55:17.651Z,100738.06
2023-05-10T06:57:47.961Z,100727.69
2023-05-10T07:00:19.166Z,100726.84
2023-05-10T07:02:50.211Z,100719.22
2023-05-10T07:05:20.868Z,100716.94
2023-05-10T07:07:51.549Z,100718.56
2023-05-10T07:10:21.813Z,100705.19
2023-05-10T07:12:52.042Z,100709.91
2023-05-10T07:15:22.346Z,100702.88
2023-05-10T07:17:52.814Z,100692.31
2023-05-10T07:20:23.407Z,100698.66
2023-05-10T07:22:53.589Z,100696.34
2023-05-10T07:25:23.591Z,100697.97
2023-05-10T07:27:54.278Z,100691.28
2023-05-10T07:30:24.642Z,100686.22
2023-05-10T07:32:54.910Z,100686.53
2023-05-10T07:35:24.981Z,100684.25
2023-05-10T07:37:54.965Z,100674.78
2023-05-10T07:40:25.237Z,100666.00
2023-05-10T07:42:55.599Z,100658.31
2023-05-10T07:45:26.507Z,100652.78
2023-05-10T07:47:57.208Z,100649.66
2023-05-10T07:50:27.545Z,100654.25
2023-05-10T07:52:58.211Z,100639.59
2023-05-10T07:55:28.412Z,100642.50
2023-05-10T07:57:58.681Z,100636.16
2023-05-10T08:00:29.035Z,100634.53
2023-05-10T08:02:59.613Z,100634.19
2023-05-10T08:05:29.928Z,100621.13
2023-05-10T08:08:00.010Z,100620.69
2023-05-10T08:10:30.028Z,100616.41
2023-05-10T08:13:01.692Z,100619.97
2023-05-10T08:15:31.887Z,100615.72
2023-05-10T08:18:02.137Z,100611.94
2023-05-10T08:20:32.307Z,100600.38
2023-05-10T08:23:02.390Z,100603.63
2023-05-10T08:25:32.598Z,100596.94
2023-05-10T08:28:02.814Z,100603.16
2023-05-10T08:30:33.371Z,100590.13
2023-05-10T08:33:03.912Z,100588.25
2023-05-10T08:35:36.564Z,100584.34
2023-05-10T08:38:06.747Z,100581.44
2023-05-10T08:40:39.244Z,100581.81
2023-05-10T08:43:12.023Z,100583.28
2023-05-10T08:45:51.416Z,100566.19
2023-05-10T08:48:21.717Z,100576.38
2023-05-10T08:50:54.420Z,100565.63
2023-05-10T08:53:28.207Z,100564.72
2023-05-10T08:55:59.424Z,100559.75
2023-05-10T08:58:29.896Z,100561.59
2023-05-10T09:01:01.666Z,100551.78
2023-05-10T09:03:32.024Z,100556.75
2023-05-10T09:06:02.421Z,100553.53
2023-05-10T09:08:34.337Z,100549.13
2023-05-10T09:11:06.229Z,100550.28
2023-05-10T09:13:36.663Z,100554.31
2023-05-10T09:16:20.411Z,100552.38
2023-05-10T09:18:52.784Z,100551.56
2023-05-10T09:21:23.950Z,100541.50
2023-05-10T09:23:57.410Z,100550.75
2023-05-10T09:26:28.215Z,100537.59
2023-05-10T09:29:02.469Z,100538.53
2023-05-10T09:31:51.431Z,100532.50
2023-05-10T09:34:23.492Z,100537.22
2023-05-10T09:37:04.055Z,100533.41
2023-05-10T09:39:41.514Z,100529.50
2023-05-10T09:42:13.388Z,100527.56
2023-05-10T09:44:44.274Z,100527.09
2023-05-10T09:47:20.824Z,100525.25
2023-05-10T09:49:54.644Z,100527.19
2023-05-10T09:52:25.001Z,100534.81
2023-05-10T09:54:58.513Z,100538.41
2023-05-10T09:57:29.448Z,100553.88
2023-05-10T10:00:00.871Z,100550.78
2023-05-10T10:02:35.219Z,100553.53
2023-05-10T10:05:09.192Z,100557.47
2023-05-10T10:07:39.873Z,100554.22
2023-05-10T10:10:14.834Z,100557.78
2023-05-10T10:12:45.526Z,100553.06
2023-05-10T10:15:16.942Z,100554.91
2023-05-10T10:17:48.317Z,100557.78
2023-05-10T10:20:18.902Z,100562.06
2023-05-10T10:22:50.617Z,100560.25
2023-05-10T10:25:22.832Z,100559.41
2023-05-10T10:27:56.192Z,100557.94
2023-05-10T10:30:49.509Z,100563.00
2023-05-10T10:33:55.396Z,100573.63
2023-05-10T10:36:25.835Z,100570.84
2023-05-10T10:38:56.770Z,100575.72
2023-05-10T10:41:58.895Z,100572.84
2023-05-10T10:44:36.956Z,100589.22
2023-05-10T10:47:26.408Z,100584.34
2023-05-10T10:50:08.250Z,100587.97
2023-05-10T10:52:41.167Z,100600.78
2023-05-10T10:55:18.325Z,100594.44
2023-05-10T10:57:51.874Z,100598.34
2023-05-10T11:00:23.747Z,100600.66
2023-05-10T11:03:12.125Z,100610.13
2023-05-10T11:05:45.326Z,100602.13
2023-05-10T11:08:36.411Z,100618.75
2023-05-10T11:11:12.970Z,100621.69
2023-05-10T11:13:47.245Z,100628.38
2023-05-10T11:16:27.800Z,100641.09
2023-05-10T11:19:11.165Z,100641.41
2023-05-10T11:22:17.105Z,100648.09
2023-05-10T11:25:01.969Z,100654.47
2023-05-10T11:27:32.441Z,100661.63
2023-05-10T11:30:06.733Z,100671.09
2023-05-10T11:32:37.240Z,100674.66
2023-05-10T11:35:16.688Z,100681.34
2023-05-10T11:37:51.611Z,100683.81
2023-05-10T13:19:20.745Z,100814.75
2023-05-10T13:21:51.023Z,100828.19
2023-05-10T13:24:21.290Z,100844.50
2023-05-10T13:26:51.881Z,100845.47
2023-05-10T13:29:22.560Z,100856.50
2023-05-10T13:31:53.277Z,100866.56
2023-05-10T13:34:27.556Z,100865.41
2023-05-10T13:36:59.463Z,100870.22
2023-05-10T13:39:30.076Z,100866.91
2023-05-10T13:42:00.395Z,100867.91
2023-05-10T13:44:30.747Z,100871.50
2023-05-10T13:47:01.283Z,100878.59
2023-05-10T13:49:31.999Z,100883.63
2023-05-10T13:52:02.340Z,100890.25
2023-05-10T13:54:33.543Z,100891.22
2023-05-10T13:57:04.024Z,100891.88
2023-05-10T13:59:37.476Z,100893.69
2023-05-10T14:02:07.910Z,100885.53
2023-05-10T14:04:38.882Z,100889.59
2023-05-10T14:07:09.840Z,100894.47
2023-05-10T14:09:40.075Z,100898.38
2023-05-10T14:12:10.302Z,100902.38
2023-05-10T14:14:40.645Z,100906.41
2023-05-10T14:17:12.406Z,100916.06
2023-05-10T14:19:42.937Z,100919.34
2023-05-10T14:22:13.280Z,100928.28
2023-05-10T14:24:43.307Z,100934.34
2023-05-10T14:27:13.604Z,100937.75
2023-05-10T14:29:43.812Z,100935.47
2023-05-10T14:32:14.192Z,100942.66
2023-05-10T14:34:44.427Z,100932.06
2023-05-10T14:37:15.265Z,100933.50
2023-05-10T14:39:46.098Z,100934.34
2023-05-10T14:42:16.270Z,100940.34
2023-05-10T14:44:46.435Z,100934.13
2023-05-10T14:47:16.631Z,100926.72
2023-05-10T14:49:46.934Z,100920.06
2023-05-10T14:55:05.598Z,100934.94
2023-05-10T14:57:35.812Z,100936.78
2023-05-10T15:00:07.153Z,100937.91
2023-05-10T15:02:37.884Z,100948.19
2023-05-10T15:05:09.349Z,100955.00
2023-05-10T15:07:39.841Z,100966.78
2023-05-10T15:10:10.506Z,100964.63
2023-05-10T15:12:41.373Z,100958.94
2023-05-10T15:15:11.731Z,100956.50
2023-05-10T15:17:41.951Z,100972.31
2023-05-10T15:20:12.524Z,100972.00
2023-05-10T15:22:42.854Z,100975.31
2023-05-10T15:25:13.210Z,100978.94
2023-05-10T15:27:43.495Z,100988.41
2023-05-10T15:30:14.236Z,100981.22
2023-05-10T15:32:44.915Z,100990.38
2023-05-10T15:35:15.420Z,100988.59
2023-05-10T15:37:45.800Z,100996.09
2023-05-10T15:40:15.886Z,100995.59
2023-05-10T15:42:45.897Z,100994.81
2023-05-10T15:45:16.635Z,100994.31
2023-05-10T15:47:47.414Z,100994.31
2023-05-10T15:50:19.508Z,101006.22
2023-05-10T15:52:49.902Z,100997.44
2023-05-10T15:55:20.274Z,100998.09
2023-05-10T15:57:51.153Z,100993.03
2023-05-10T16:00:21.534Z,100986.19
2023-05-10T16:02:52.217Z,100986.19
2023-05-10T16:05:22.698Z,100988.97
2023-05-10T16:07:53.035Z,100985.38
2023-05-10T16:10:23.227Z,100975.94
2023-05-10T16:12:53.490Z,100979.03
2023-05-10T16:15:26.454Z,100975.75
2023-05-10T16:17:56.987Z,100975.75
2023-05-10T16:20:27.419Z,100963.88
2023-05-10T16:22:58.440Z,100973.00
2023-05-10T16:25:28.753Z,100974.63
2023-05-10T16:27:58.903Z,100979.84
2023-05-10T16:30:31.500Z,100969.06
2023-05-10T16:33:03.970Z,100963.88
2023-05-10T16:35:34.362Z,100961.13
2023-05-10T16:38:04.408Z,100957.53
2023-05-10T16:40:35.822Z,100959.63
2023-05-10T16:43:06.000Z,100957.19
2023-05-10T16:45:36.141Z,100952.81
2023-05-10T16:48:06.308Z,100947.25
2023-05-10T16:50:36.556Z,100948.53
2023-05-10T16:53:06.620Z,100939.44
2023-05-10T16:55:36.616Z,100936.19
2023-05-10T16:58:06.768Z,100940.56
2023-05-10T17:00:36.953Z,100934.19
2023-05-10T17:03:07.294Z,100936.97
2023-05-10T17:05:37.822Z,100936.19
2023-05-10T17:08:08.047Z,100930.63
2023-05-10T17:10:41.915Z,100937.66
2023-05-10T17:13:12.104Z,100936.19
2023-05-10T17:15:42.328Z,100934.91
2023-05-10T17:18:12.945Z,100939.28
2023-05-10T17:20:45.960Z,100945.63
2023-05-10T17:23:16.112Z,100941.38
2023-05-10T17:25:46.174Z,100939.59
2023-05-10T17:28:16.299Z,100941.56
2023-05-10T17:30:46.880Z,100939.47
2023-05-10T17:33:17.130Z,100934.72
2023-05-10T17:35:48.777Z,100931.16
2023-05-10T17:38:19.300Z,100936.69
2023-05-10T17:40:49.586Z,100940.75
2023-05-10T17:43:19.871Z,100930.16
2023-05-10T17:45:53.352Z,100928.88
2023-05-10T17:48:23.545Z,100926.75
2023-05-10T17:50:54.177Z,100931.16
2023-05-10T17:53:25.287Z,100927.25
2023-05-10T17:55:56.244Z,100926.41
2023-05-10T17:58:26.437Z,100936.03
2023-05-10T18:00:57.277Z,100932.78
2023-05-10T18:03:27.643Z,100931.16
2023-05-10T18:05:58.033Z,100922.38
2023-05-10T18:08:29.718Z,100914.88
2023-05-10T18:11:00.380Z,100910.63
2023-05-10T18:13:30.879Z,100904.41
2023-05-10T18:16:01.749Z,100901.66
2023-05-10T18:18:32.207Z,100896.09
2023-05-10T18:21:03.838Z,100888.09
2023-05-10T18:23:34.293Z,100884.53
2023-05-10T18:26:05.569Z,100894.00
2023-05-10T18:28:35.931Z,100890.88
2023-05-10T18:31:06.229Z,100890.09
2023-05-10T18:33:36.617Z,100886.16
2023-05-10T18:36:07.426Z,100892.38
2023-05-10T18:38:37.806Z,100894.31
2023-05-10T18:41:09.054Z,100894.78
2023-05-10T18:43:38.994Z,100901.66
2023-05-10T18:46:09.029Z,100898.72
2023-05-10T18:48:39.281Z,100899.69
2023-05-10T18:51:09.758Z,100902.63
2023-05-10T18:53:40.120Z,100906.72
2023-05-10T18:56:10.482Z,100902.97
2023-05-10T18:58:40.915Z,100896.28
2023-05-10T19:01:11.899Z,100893.88
2023-05-10T19:03:41.965Z,100893.03
2023-05-10T19:06:12.532Z,100902.31
2023-05-10T19:08:42.724Z,100896.94
2023-05-10T19:11:13.073Z,100910.94
2023-05-10T19:13:43.099Z,100904.13
2023-05-10T19:16:18.674Z,100907.22
2023-05-10T19:18:52.191Z,100910.00
2023-05-10T19:21:23.209Z,100900.88
2023-05-10T19:23:53.528Z,100898.25
2023-05-10T19:26:25.794Z,100884.41
2023-05-10T19:28:56.840Z,100878.69
2023-05-10T19:31:27.633Z,100873.78
2023-05-10T19:34:00.649Z,100880.31
2023-05-10T19:36:31.155Z,100872.00
2023-05-10T19:39:02.477Z,100872.38
2023-05-10T19:41:32.652Z,100868.72
2023-05-10T19:44:02.859Z,100860.94
2023-05-10T19:46:33.711Z,100861.41
2023-05-10T19:49:04.045Z,100853.78
2023-05-10T19:51:34.211Z,100851.81
2023-05-10T19:54:04.498Z,100844.31
2023-05-10T19:56:34.800Z,100850.69
2023-05-10T19:59:07.682Z,100840.41
2023-05-10T20:01:38.076Z,100845.78
2023-05-10T20:04:08.636Z,100844.94
2023-05-10T20:06:38.957Z,100854.75
2023-05-10T20:09:09.573Z,100846.78
2023-05-10T20:11:39.827Z,100842.88
2023-05-10T20:14:11.343Z,100846.09
2023-05-10T20:16:41.578Z,100850.34
2023-05-10T20:19:11.892Z,100844.94
2023-05-10T20:21:42.255Z,100839.41
2023-05-10T20:24:12.606Z,100845.47
2023-05-10T20:26:43.542Z,100846.56
2023-05-10T20:29:15.640Z,100852.13
2023-05-10T20:31:45.838Z,100843.00
2023-05-10T20:34:16.136Z,100843.00
2023-05-10T20:36:46.371Z,100837.78
2023-05-10T20:39:17.336Z,100837.47
2023-05-10T20:41:47.397Z,100844.94
2023-05-10T20:44:18.105Z,100835.84
2023-05-10T20:46:48.395Z,100844.94
2023-05-10T20:49:18.398Z,100844.94
2023-05-10T20:51:48.744Z,100856.38
2023-05-10T20:54:18.965Z,100849.22
2023-05-10T20:56:49.176Z,100846.44
2023-05-10T20:59:20.849Z,100850.50
2023-05-10T21:01:51.189Z,100855.88
2023-05-10T21:04:21.516Z,100857.16
2023-05-10T21:06:51.981Z,100858.34
2023-05-10T21:09:22.007Z,100856.72
2023-05-10T21:11:53.317Z,100857.53
2023-05-10T21:14:23.384Z,100856.84
2023-05-10T21:16:53.667Z,100860.28
2023-05-10T21:19:24.309Z,100873.66
2023-05-10T21:21:54.525Z,100865.81
2023-05-10T21:24:25.963Z,100876.09
2023-05-10T21:26:56.163Z,100877.75
2023-05-10T21:29:26.478Z,100873.34
2023-05-10T21:31:56.740Z,100876.09
2023-05-10T21:34:26.976Z,100872.84
2023-05-10T21:36:57.425Z,100879.19
2023-05-10T21:39:27.694Z,100874.00
2023-05-10T21:41:58.461Z,100874.31
2023-05-10T21:44:28.670Z,100882.31
2023-05-10T21:46:58.915Z,100881.34
2023-05-10T21:49:29.433Z,100888.16
2023-05-10T21:51:59.571Z,100886.53
2023-05-10T21:54:29.863Z,100900.25
2023-05-10T21:57:00.994Z,100904.34
2023-05-10T21:59:30.879Z,100895.53
2023-05-10T22:02:00.877Z,100904.34
2023-05-10T22:04:31.156Z,100905.00
2023-05-10T22:07:01.732Z,100905.78
2023-05-10T22:09:31.961Z,100902.22
2023-05-10T22:12:02.299Z,100916.06
2023-05-10T22:14:33.089Z,100916.88
2023-05-10T22:17:03.441Z,100918.84
2023-05-10T22:19:33.689Z,100915.25
2023-05-10T22:22:03.800Z,100911.81
2023-05-10T22:24:34.237Z,100908.06
2023-05-10T22:27:05.401Z,100913.97
2023-05-10T22:29:35.497Z,100918.66
2023-05-10T22:32:08.033Z,100917.88
2023-05-10T22:34:38.440Z,100919.84
2023-05-10T22:37:08.704Z,100918.22
2023-05-10T22:39:38.948Z,100925.38
2023-05-10T22:42:09.026Z,100921.78
2023-05-10T22:44:39.865Z,100925.38
2023-05-10T22:47:11.277Z,100926.97
2023-05-10T22:49:41.546Z,100921.44
2023-05-10T22:52:13.628Z,100925.69
2023-05-10T22:55:07.994Z,100925.53
2023-05-10T22:57:38.632Z,100927.50
2023-05-10T23:00:09.789Z,100927.84
2023-05-10T23:02:39.960Z,100933.53
2023-05-10T23:05:10.842Z,100929.84
2023-05-10T23:07:41.006Z,100931.91
2023-05-10T23:10:11.366Z,100935.50
2023-05-10T23:12:41.561Z,100935.38
2023-05-10T23:15:12.121Z,100943.69
2023-05-10T23:17:42.406Z,100938.78
2023-05-10T23:20:13.344Z,100946.91
2023-05-10T23:22:43.574Z,100957.97
2023-05-10T23:25:14.803Z,100961.91
2023-05-10T23:27:44.979Z,100961.91
2023-05-10T23:30:15.652Z,100965.13
2023-05-10T23:32:46.184Z,100976.91
2023-05-10T23:35:16.594Z,100978.97
2023-05-10T23:37:46.712Z,100981.94
2023-05-10T23:40:17.932Z,100981.78
2023-05-10T23:42:48.396Z,100987.78
2023-05-10T23:45:18.719Z,100991.06
2023-05-10T23:47:48.984Z,100994.66
2023-05-10T23:50:19.533Z,101001.81
2023-05-10T23:52:49.928Z,101008.50
2023-05-10T23:55:20.264Z,101015.66
2023-05-10T23:57:50.552Z,101017.28
